createdAt,value
2022-08-16T00:00:29.221Z,4.40
2022-08-16T00:03:05.955Z,4.50
2022-08-16T00:05:35.173Z,4.35
2022-08-16T00:08:36.603Z,5.25
2022-08-16T00:11:01.058Z,5.22
2022-08-16T00:13:29.434Z,5.05
2022-08-16T00:15:55.979Z,4.80
2022-08-16T00:18:29.522Z,5.40
2022-08-16T00:20:57.460Z,4.80
2022-08-16T00:23:34.719Z,4.93
2022-08-16T00:26:35.627Z,5.00
2022-08-16T00:28:54.822Z,4.18
2022-08-16T00:31:24.242Z,4.30
2022-08-16T00:33:51.141Z,4.88
2022-08-16T00:36:17.925Z,4.75
2022-08-16T00:38:44.671Z,4.78
2022-08-16T00:41:11.450Z,4.70
2022-08-16T00:43:43.423Z,4.63
2022-08-16T00:46:33.707Z,4.65
2022-08-16T00:49:04.851Z,4.70
2022-08-16T00:51:31.386Z,4.50
2022-08-16T00:53:58.607Z,4.63
2022-08-16T00:56:58.647Z,4.70
2022-08-16T00:59:18.691Z,4.65
2022-08-16T01:01:45.574Z,4.47
2022-08-16T01:04:28.909Z,4.82
2022-08-16T01:07:03.106Z,4.45
2022-08-16T01:09:37.411Z,5.65
2022-08-16T01:12:08.368Z,4.38
2022-08-16T01:14:41.029Z,4.97
2022-08-16T01:17:12.984Z,4.60
2022-08-16T01:19:51.154Z,4.55
2022-08-16T01:22:47.977Z,4.63
2022-08-16T01:25:21.946Z,4.80
2022-08-16T01:27:52.603Z,4.90
2022-08-16T01:30:26.240Z,5.07
2022-08-16T01:33:02.971Z,5.03
2022-08-16T01:35:53.939Z,4.97
2022-08-16T01:38:28.088Z,4.85
2022-08-16T01:41:02.164Z,5.15
2022-08-16T01:43:31.117Z,4.60
2022-08-16T01:46:37.266Z,5.28
2022-08-16T01:48:48.471Z,5.60
2022-08-16T01:51:18.655Z,4.93
2022-08-16T01:53:50.833Z,5.25
2022-08-16T01:56:24.732Z,5.47
2022-08-16T01:58:53.189Z,5.70
2022-08-16T02:01:19.715Z,5.28
2022-08-16T02:03:50.695Z,4.55
2022-08-16T02:06:33.951Z,6.18
2022-08-16T02:09:01.939Z,4.88
2022-08-16T02:11:47.663Z,4.95
2022-08-16T02:14:17.943Z,5.30
2022-08-16T02:16:44.960Z,4.70
2022-08-16T02:19:16.127Z,4.72
2022-08-16T02:22:07.646Z,6.35
2022-08-16T02:24:41.331Z,4.90
2022-08-16T02:27:10.176Z,4.93
2022-08-16T02:29:38.318Z,5.80
2022-08-16T02:32:49.077Z,7.97
2022-08-16T02:34:57.539Z,5.45
2022-08-16T02:37:24.744Z,5.50
2022-08-16T02:40:16.397Z,9.40
2022-08-16T02:42:49.962Z,5.47
2022-08-16T02:45:20.554Z,5.13
2022-08-16T02:48:01.367Z,4.97
2022-08-16T02:50:54.663Z,5.07
2022-08-16T02:53:25.570Z,6.03
2022-08-16T02:55:53.829Z,5.88
2022-08-16T02:58:25.018Z,5.18
2022-08-16T03:00:56.015Z,5.30
2022-08-16T03:03:23.486Z,6.45
2022-08-16T03:05:52.570Z,4.95
2022-08-16T03:08:51.730Z,6.47
2022-08-16T03:11:16.838Z,6.20
2022-08-16T03:13:53.273Z,4.95
2022-08-16T03:16:37.661Z,5.40
2022-08-16T03:19:07.372Z,5.68
2022-08-16T03:21:37.931Z,5.32
2022-08-16T03:24:28.211Z,5.10
2022-08-16T03:26:58.151Z,6.55
2022-08-16T03:29:30.035Z,5.13
2022-08-16T03:31:59.172Z,6.75
2022-08-16T03:34:26.584Z,4.90
2022-08-16T03:36:53.510Z,5.00
2022-08-16T03:39:20.621Z,7.35
2022-08-16T03:41:50.619Z,4.80
2022-08-16T03:44:43.758Z,5.25
2022-08-16T03:47:05.266Z,6.70
2022-08-16T03:49:37.647Z,5.28
2022-08-16T03:52:05.466Z,5.03
2022-08-16T03:54:32.069Z,4.93
2022-08-16T03:57:03.060Z,4.93
2022-08-16T03:59:32.242Z,5.05
2022-08-16T04:02:00.833Z,5.57
2022-08-16T04:04:33.141Z,5.28
2022-08-16T04:07:02.820Z,6.80
2022-08-16T04:09:35.539Z,5.82
2022-08-16T04:12:10.874Z,5.07
2022-08-16T04:14:52.401Z,5.45
2022-08-16T04:17:18.929Z,4.97
2022-08-16T04:19:46.734Z,5.40
2022-08-16T04:22:14.124Z,5.03
2022-08-16T04:24:54.402Z,5.20
2022-08-16T04:27:22.294Z,5.70
2022-08-16T04:29:52.317Z,5.28
2022-08-16T04:32:19.784Z,4.97
2022-08-16T04:34:47.037Z,5.38
2022-08-16T04:37:14.386Z,5.40
2022-08-16T04:39:46.963Z,5.90
2022-08-16T04:42:25.860Z,6.10
2022-08-16T04:44:56.081Z,7.18
2022-08-16T04:47:33.042Z,5.50
2022-08-16T04:50:23.574Z,5.40
2022-08-16T04:52:57.894Z,5.22
2022-08-16T04:55:37.988Z,5.32
2022-08-16T04:58:45.225Z,5.05
2022-08-16T05:00:54.347Z,5.00
2022-08-16T05:03:21.435Z,5.50
2022-08-16T05:05:59.077Z,5.47
2022-08-16T05:08:31.575Z,5.45
2022-08-16T05:11:05.445Z,5.57
2022-08-16T05:13:40.674Z,9.65
2022-08-16T05:16:20.252Z,7.38
2022-08-16T05:18:50.568Z,5.18
2022-08-16T05:21:17.360Z,7.63
2022-08-16T05:23:51.504Z,8.18
2022-08-16T05:26:23.414Z,8.77
2022-08-16T05:28:55.573Z,5.80
2022-08-16T05:31:23.919Z,5.97
2022-08-16T05:33:56.212Z,6.13
2022-08-16T05:36:22.742Z,5.50
2022-08-16T05:39:00.203Z,11.27
2022-08-16T05:41:28.998Z,5.50
2022-08-16T05:44:00.324Z,5.63
2022-08-16T05:46:31.807Z,10.23
2022-08-16T05:49:05.920Z,7.30
2022-08-16T05:51:41.566Z,5.97
2022-08-16T05:54:09.754Z,9.15
2022-08-16T05:56:39.544Z,15.57
2022-08-16T05:59:07.208Z,7.13
2022-08-16T06:01:38.330Z,15.88
2022-08-16T06:04:13.442Z,15.55
2022-08-16T06:06:56.778Z,15.88
2022-08-16T06:09:42.963Z,17.13
2022-08-16T06:12:26.835Z,14.85
2022-08-16T06:14:59.343Z,16.40
2022-08-16T06:17:42.856Z,21.73
2022-08-16T06:20:37.927Z,18.67
2022-08-16T06:23:24.068Z,20.02
2022-08-16T06:25:53.020Z,22.40
2022-08-16T06:28:36.037Z,16.58
2022-08-16T06:31:05.161Z,23.63
2022-08-16T06:33:41.262Z,26.25
2022-08-16T06:36:09.684Z,27.95
2022-08-16T06:38:37.376Z,30.27
2022-08-16T06:41:13.950Z,29.42
2022-08-16T06:43:41.722Z,26.20
2022-08-16T06:46:20.963Z,24.25
2022-08-16T06:48:51.517Z,28.42
2022-08-16T06:51:18.461Z,30.70
2022-08-16T06:53:46.219Z,22.88
2022-08-16T06:56:23.323Z,15.35
2022-08-16T06:58:53.715Z,28.95
2022-08-16T07:01:46.158Z,25.77
2022-08-16T07:04:11.029Z,28.42
2022-08-16T07:06:40.214Z,32.20
2022-08-16T07:09:11.359Z,13.90
2022-08-16T07:11:45.692Z,22.70
2022-08-16T07:14:24.543Z,25.33
2022-08-16T07:16:55.370Z,21.48
2022-08-16T07:20:01.377Z,21.85
2022-08-16T07:22:38.177Z,27.13
2022-08-16T07:24:58.079Z,20.60
2022-08-16T07:27:24.898Z,27.63
2022-08-16T07:29:51.498Z,25.05
2022-08-16T07:32:29.448Z,29.63
2022-08-16T07:34:58.110Z,28.38
2022-08-16T07:37:24.715Z,27.55
2022-08-16T07:39:51.771Z,28.88
2022-08-16T07:42:26.064Z,31.60
2022-08-16T07:44:57.749Z,26.55
2022-08-16T07:47:32.004Z,27.27
2022-08-16T07:50:00.086Z,27.58
2022-08-16T07:52:32.252Z,31.92
2022-08-16T07:54:58.929Z,24.65
2022-08-16T07:57:25.509Z,26.67
2022-08-16T07:59:53.111Z,25.38
2022-08-16T08:02:20.918Z,28.13
2022-08-16T08:04:48.313Z,24.10
2022-08-16T08:07:16.111Z,26.52
2022-08-16T08:09:43.880Z,28.13
2022-08-16T08:12:32.027Z,23.17
2022-08-16T08:14:58.324Z,26.42
2022-08-16T08:17:25.348Z,28.85
2022-08-16T08:20:12.948Z,18.23
2022-08-16T08:23:01.148Z,25.08
2022-08-16T08:25:54.587Z,24.33
2022-08-16T08:28:17.777Z,20.67
2022-08-16T08:30:51.051Z,24.67
2022-08-16T08:33:27.713Z,21.17
2022-08-16T08:35:57.172Z,21.25
2022-08-16T08:38:43.896Z,20.60
2022-08-16T08:41:15.527Z,23.65
2022-08-16T08:43:46.658Z,23.90
2022-08-16T08:46:18.083Z,19.83
2022-08-16T08:48:59.565Z,21.08
2022-08-16T08:51:27.587Z,23.35
2022-08-16T08:53:58.926Z,21.05
2022-08-16T08:56:26.053Z,19.83
2022-08-16T08:58:58.278Z,22.60
2022-08-16T09:01:36.877Z,22.95
2022-08-16T09:04:14.380Z,15.95
2022-08-16T09:06:43.052Z,20.30
2022-08-16T09:09:16.839Z,19.90
2022-08-16T09:11:47.247Z,21.85
2022-08-16T09:14:24.791Z,20.23
2022-08-16T09:17:01.314Z,21.63
2022-08-16T09:19:31.945Z,19.67
2022-08-16T09:21:59.981Z,21.08
2022-08-16T09:24:46.955Z,19.10
2022-08-16T09:27:13.192Z,18.85
2022-08-16T09:29:45.254Z,20.60
2022-08-16T09:32:12.850Z,18.48
2022-08-16T09:34:58.290Z,20.52
2022-08-16T09:37:29.629Z,18.15
2022-08-16T09:39:57.523Z,18.83
2022-08-16T09:42:28.447Z,17.55
2022-08-16T09:45:13.091Z,19.95
2022-08-16T09:47:56.512Z,18.33
2022-08-16T09:50:33.266Z,15.23
2022-08-16T09:53:15.387Z,12.07
2022-08-16T09:55:49.313Z,14.30
2022-08-16T09:58:37.869Z,14.90
2022-08-16T10:01:03.897Z,15.93
2022-08-16T10:03:31.802Z,15.45
2022-08-16T10:05:58.492Z,13.77
2022-08-16T10:08:27.422Z,10.68
2022-08-16T10:11:13.362Z,11.13
2022-08-16T10:13:41.646Z,13.30
2022-08-16T10:16:09.203Z,10.50
2022-08-16T10:19:00.305Z,12.32
2022-08-16T10:21:24.135Z,15.00
2022-08-16T10:23:53.600Z,17.00
2022-08-16T10:27:00.534Z,16.33
2022-08-16T10:29:12.005Z,9.82
2022-08-16T10:31:53.892Z,10.98
2022-08-16T10:34:32.058Z,14.23
2022-08-16T10:37:00.645Z,15.30
2022-08-16T10:39:40.506Z,12.00
2022-08-16T10:42:10.011Z,15.73
2022-08-16T10:44:37.198Z,10.70
2022-08-16T10:47:05.354Z,11.55
2022-08-16T10:49:32.372Z,14.10
2022-08-16T10:52:02.296Z,13.00
2022-08-16T10:54:31.140Z,13.50
2022-08-16T10:57:00.536Z,13.25
2022-08-16T10:59:32.557Z,10.18
2022-08-16T11:07:52.563Z,12.75
2022-08-16T11:13:57.337Z,12.13
2022-08-16T11:19:05.868Z,12.07
2022-08-16T11:22:23.094Z,14.60
2022-08-16T11:24:41.392Z,8.55
2022-08-16T11:27:23.427Z,9.35
2022-08-16T11:29:54.754Z,12.68
2022-08-16T11:32:31.864Z,12.10
2022-08-16T11:35:13.555Z,10.45
2022-08-16T11:40:38.926Z,8.43
2022-08-16T11:43:10.197Z,11.07
2022-08-16T11:45:37.074Z,10.20
2022-08-16T11:48:04.778Z,13.80
2022-08-16T11:50:34.293Z,17.25
2022-08-16T11:53:03.754Z,8.98
2022-08-16T11:55:31.279Z,6.07
2022-08-16T11:57:57.789Z,11.38
2022-08-16T12:00:33.761Z,7.20
2022-08-16T12:03:10.940Z,8.30
2022-08-16T12:05:39.578Z,9.43
2022-08-16T12:08:07.620Z,5.50
2022-08-16T12:10:43.196Z,7.90
2022-08-16T12:13:10.716Z,8.38
2022-08-16T12:15:38.438Z,11.00
2022-08-16T12:18:07.017Z,6.93
2022-08-16T12:20:42.605Z,10.68
2022-08-16T12:23:12.474Z,12.38
2022-08-16T12:25:40.075Z,8.85
2022-08-16T12:28:08.642Z,10.45
2022-08-16T12:30:39.440Z,11.65
2022-08-16T12:33:10.890Z,11.57
2022-08-16T12:35:40.233Z,11.30
2022-08-16T12:38:37.787Z,10.80
2022-08-16T12:40:57.087Z,13.18
2022-08-16T12:43:25.653Z,11.95
2022-08-16T12:45:55.781Z,7.28
2022-08-16T12:48:44.980Z,9.43
2022-08-16T12:51:22.350Z,10.70
2022-08-16T12:53:52.857Z,6.82
2022-08-16T12:56:21.085Z,7.68
2022-08-16T12:58:51.523Z,13.30
2022-08-16T13:01:23.130Z,13.07
2022-08-16T13:03:59.121Z,6.72
2022-08-16T13:06:36.711Z,9.98
2022-08-16T13:09:20.430Z,10.35
2022-08-16T13:12:10.144Z,10.02
2022-08-16T13:14:39.426Z,10.38
2022-08-16T13:17:13.996Z,6.45
2022-08-16T13:22:34.784Z,7.90
2022-08-16T13:25:09.622Z,9.50
2022-08-16T13:28:02.462Z,9.55
2022-08-16T13:30:36.864Z,9.20
2022-08-16T13:33:13.341Z,9.00
2022-08-16T13:35:44.419Z,13.02
2022-08-16T13:38:21.637Z,17.38
2022-08-16T13:40:52.131Z,10.15
2022-08-16T13:43:21.618Z,10.43
2022-08-16T13:45:50.290Z,9.00
2022-08-16T13:48:24.686Z,13.48
2022-08-16T13:50:53.619Z,13.52
2022-08-16T13:53:29.475Z,14.95
2022-08-16T13:56:07.481Z,11.18
2022-08-16T13:59:29.596Z,12.75
2022-08-16T14:02:02.817Z,8.23
2022-08-16T14:04:33.039Z,8.25
2022-08-16T14:07:03.401Z,15.10
2022-08-16T14:09:32.011Z,10.80
2022-08-16T14:12:00.518Z,9.32
2022-08-16T14:14:29.810Z,10.23
2022-08-16T14:17:01.046Z,10.25
2022-08-16T14:19:29.728Z,8.70
2022-08-16T14:22:15.373Z,8.00
2022-08-16T14:24:47.329Z,10.40
2022-08-16T14:27:16.130Z,7.93
2022-08-16T14:29:44.040Z,5.40
2022-08-16T14:32:13.233Z,6.25
2022-08-16T14:35:00.162Z,7.47
2022-08-16T14:37:27.352Z,5.70
2022-08-16T14:39:54.679Z,11.00
2022-08-16T14:42:23.302Z,7.43
2022-08-16T14:44:50.286Z,8.52
2022-08-16T14:47:17.540Z,7.53
2022-08-16T14:49:44.785Z,10.48
2022-08-16T14:52:15.858Z,10.25
2022-08-16T14:54:49.098Z,5.40
2022-08-16T14:57:17.180Z,6.35
2022-08-16T14:59:46.108Z,5.13
2022-08-16T15:02:34.327Z,6.70
2022-08-16T15:05:04.845Z,8.43
2022-08-16T15:07:35.184Z,5.20
2022-08-16T15:10:04.361Z,7.18
2022-08-16T15:12:36.326Z,6.45
2022-08-16T15:15:12.723Z,8.70
2022-08-16T15:17:54.623Z,13.02
2022-08-16T15:20:29.095Z,6.45
2022-08-16T15:23:01.019Z,6.20
2022-08-16T15:25:35.467Z,7.55
2022-08-16T15:28:05.581Z,7.55
2022-08-16T15:30:56.676Z,12.27
2022-08-16T15:33:25.751Z,6.78
2022-08-16T15:35:55.271Z,6.07
2022-08-16T15:38:57.189Z,13.50
2022-08-16T15:41:43.129Z,8.68
2022-08-16T15:44:21.233Z,4.90
2022-08-16T15:46:54.946Z,10.38
2022-08-16T15:49:25.241Z,4.93
2022-08-16T15:52:18.335Z,8.50
2022-08-16T15:54:52.664Z,5.10
2022-08-16T15:57:24.602Z,4.47
2022-08-16T15:59:52.757Z,4.60
2022-08-16T16:02:31.277Z,5.28
2022-08-16T16:05:04.288Z,5.78
2022-08-16T16:07:33.337Z,5.72
2022-08-16T16:10:02.490Z,4.90
2022-08-16T16:12:53.087Z,4.68
2022-08-16T16:15:18.518Z,5.30
2022-08-16T16:17:50.805Z,5.00
2022-08-16T16:20:24.525Z,5.40
2022-08-16T16:22:56.914Z,5.00
2022-08-16T16:25:24.796Z,4.88
2022-08-16T16:27:55.673Z,4.25
2022-08-16T16:30:38.189Z,4.80
2022-08-16T16:33:21.112Z,4.50
2022-08-16T16:35:55.182Z,5.28
2022-08-16T16:38:26.531Z,4.20
2022-08-16T16:40:54.260Z,4.63
2022-08-16T16:43:25.536Z,5.68
2022-08-16T16:45:52.757Z,4.20
2022-08-16T16:48:19.968Z,4.05
2022-08-16T16:50:46.604Z,4.40
2022-08-16T16:53:17.158Z,3.85
2022-08-16T16:55:52.144Z,3.85
2022-08-16T16:58:55.427Z,4.25
2022-08-16T17:01:35.177Z,5.72
2022-08-16T17:04:19.643Z,4.18
2022-08-16T17:06:53.765Z,4.30
2022-08-16T17:09:24.183Z,4.22
2022-08-16T17:11:55.161Z,4.10
2022-08-16T17:14:32.807Z,3.80
2022-08-16T17:17:09.521Z,3.75
2022-08-16T17:19:41.022Z,4.13
2022-08-16T17:24:58.503Z,3.80
2022-08-16T17:27:32.681Z,5.22
2022-08-16T17:30:14.802Z,3.67
2022-08-16T17:32:48.081Z,4.05
2022-08-16T17:35:18.799Z,4.10
2022-08-16T17:37:50.857Z,4.63
2022-08-16T17:39:26.602Z,3.60
2022-08-16T17:40:47.050Z,3.95
2022-08-16T17:43:13.535Z,3.75
2022-08-16T17:45:42.813Z,3.55
2022-08-16T17:48:10.000Z,3.95
2022-08-16T17:50:40.868Z,3.75
2022-08-16T17:53:11.905Z,3.50
2022-08-16T17:55:42.690Z,4.00
2022-08-16T17:58:23.319Z,3.58
2022-08-16T18:00:57.474Z,3.85
2022-08-16T18:04:06.764Z,3.80
2022-08-16T18:06:15.662Z,3.80
2022-08-16T18:08:43.871Z,3.80
2022-08-16T18:11:12.148Z,3.60
2022-08-16T18:13:43.448Z,3.92
2022-08-16T18:16:17.852Z,3.97
2022-08-16T18:18:46.153Z,3.72
2022-08-16T18:21:35.628Z,3.90
2022-08-16T18:24:02.330Z,3.90
2022-08-16T18:26:28.876Z,3.90
2022-08-16T18:28:55.815Z,4.38
2022-08-16T18:31:33.574Z,4.18
2022-08-16T18:34:01.637Z,3.97
2022-08-16T18:36:31.767Z,4.28
2022-08-16T18:39:02.358Z,3.75
2022-08-16T18:41:32.293Z,4.22
2022-08-16T18:44:24.988Z,4.38
2022-08-16T18:46:59.113Z,4.03
2022-08-16T18:49:35.885Z,4.45
2022-08-16T18:52:25.329Z,3.70
2022-08-16T18:55:01.627Z,4.28
2022-08-16T19:00:15.503Z,4.20
2022-08-16T19:02:58.136Z,4.60
2022-08-16T19:05:38.227Z,4.50
2022-08-16T19:08:10.554Z,4.85
2022-08-16T19:11:05.895Z,4.28
2022-08-16T19:13:57.129Z,5.35
2022-08-16T19:16:26.336Z,4.20
2022-08-16T19:18:56.926Z,4.07
2022-08-16T19:21:26.035Z,4.60
2022-08-16T19:24:29.314Z,4.55
2022-08-16T19:27:09.110Z,5.00
2022-08-16T19:29:47.373Z,7.85
2022-08-16T19:32:24.355Z,4.93
2022-08-16T19:34:52.175Z,5.32
2022-08-16T19:37:18.841Z,5.43
2022-08-16T19:39:45.943Z,5.72
2022-08-16T19:42:16.706Z,5.80
2022-08-16T19:44:45.963Z,5.43
2022-08-16T19:47:13.564Z,9.32
2022-08-16T19:49:44.163Z,6.32
2022-08-16T19:52:12.282Z,7.13
2022-08-16T19:54:40.333Z,6.47
2022-08-16T19:57:09.688Z,6.72
2022-08-16T19:59:40.000Z,5.57
2022-08-16T20:02:25.569Z,5.32
2022-08-16T20:05:02.768Z,6.60
2022-08-16T20:07:29.303Z,7.47
2022-08-16T20:09:57.144Z,5.80
2022-08-16T20:12:25.366Z,5.60
2022-08-16T20:14:52.138Z,8.10
2022-08-16T20:17:19.563Z,7.95
2022-08-16T20:19:46.234Z,8.30
2022-08-16T20:22:49.583Z,7.85
2022-08-16T20:25:11.940Z,5.03
2022-08-16T20:27:39.608Z,7.90
2022-08-16T20:30:08.181Z,12.50
2022-08-16T20:32:36.474Z,14.40
2022-08-16T20:35:05.086Z,13.80
2022-08-16T20:37:33.141Z,13.45
2022-08-16T20:40:28.551Z,15.77
2022-08-16T20:42:58.725Z,8.63
2022-08-16T20:45:27.422Z,8.50
2022-08-16T20:47:54.465Z,7.30
2022-08-16T20:50:22.595Z,7.32
2022-08-16T20:52:49.852Z,12.80
2022-08-16T20:55:17.294Z,23.73
2022-08-16T20:57:43.915Z,16.65
2022-08-16T21:00:11.718Z,9.55
2022-08-16T21:02:40.620Z,8.93
2022-08-16T21:05:09.575Z,9.70
2022-08-16T21:07:38.775Z,7.68
2022-08-16T21:10:07.633Z,25.67
2022-08-16T21:12:34.819Z,10.13
2022-08-16T21:15:07.375Z,14.07
2022-08-16T21:17:33.907Z,30.77
2022-08-16T21:20:00.421Z,31.80
2022-08-16T21:22:27.014Z,17.73
2022-08-16T21:24:59.733Z,24.42
2022-08-16T21:27:26.260Z,16.50
2022-08-16T21:29:55.755Z,14.00
2022-08-16T21:32:35.106Z,13.70
2022-08-16T21:35:13.370Z,16.58
2022-08-16T21:37:40.403Z,12.25
2022-08-16T21:40:10.068Z,26.83
2022-08-16T21:42:39.733Z,11.63
2022-08-16T21:45:08.317Z,24.80
2022-08-16T21:47:34.816Z,21.50
2022-08-16T21:50:01.371Z,37.83
2022-08-16T21:52:28.195Z,15.45
2022-08-16T21:54:57.006Z,20.92
2022-08-16T21:57:23.919Z,29.15
2022-08-16T21:59:52.043Z,14.35
2022-08-16T22:02:20.879Z,12.07
2022-08-16T22:04:47.977Z,12.07
2022-08-16T22:07:16.938Z,19.52
2022-08-16T22:09:45.304Z,13.30
2022-08-16T22:12:24.151Z,25.40
2022-08-16T22:14:50.772Z,19.27
2022-08-16T22:17:17.735Z,27.40
2022-08-16T22:19:44.491Z,24.48
2022-08-16T22:22:11.181Z,25.92
2022-08-16T22:24:38.123Z,19.33
2022-08-16T22:27:05.128Z,17.50
2022-08-16T22:29:32.001Z,27.67
2022-08-16T22:31:58.542Z,21.67
2022-08-16T22:34:25.285Z,22.95
2022-08-16T22:36:52.290Z,18.20
2022-08-16T22:39:18.837Z,21.08
2022-08-16T22:41:45.967Z,18.73
2022-08-16T22:44:13.071Z,12.50
2022-08-16T22:46:39.646Z,19.10
2022-08-16T22:49:07.384Z,15.57
2022-08-16T22:51:36.134Z,20.98
2022-08-16T22:54:34.008Z,25.52
2022-08-16T22:56:49.393Z,16.10
2022-08-16T22:59:16.025Z,12.38
2022-08-16T23:01:42.704Z,16.08
2022-08-16T23:04:09.416Z,17.10
2022-08-16T23:06:35.971Z,30.20
2022-08-16T23:09:02.682Z,24.80
2022-08-16T23:11:29.195Z,21.75
2022-08-16T23:13:56.873Z,9.98
2022-08-16T23:16:32.807Z,15.40
2022-08-16T23:19:10.376Z,14.73
2022-08-16T23:21:39.675Z,25.42
2022-08-16T23:24:08.288Z,21.63
2022-08-16T23:26:43.814Z,12.13
2022-08-16T23:29:22.111Z,9.82
2022-08-16T23:31:53.614Z,9.20
2022-08-16T23:34:21.520Z,11.82
2022-08-16T23:36:48.026Z,11.02
2022-08-16T23:39:14.666Z,19.88
2022-08-16T23:41:41.235Z,23.77
2022-08-16T23:44:44.257Z,31.50
2022-08-16T23:46:55.139Z,27.60
2022-08-16T23:49:58.177Z,17.45
2022-08-16T23:52:09.998Z,29.45
2022-08-16T23:54:36.754Z,10.65
2022-08-16T23:57:03.665Z,22.02
2022-08-16T23:59:30.289Z,18.10
